sensor_id;sensor_type;location;lat;lon;timestamp;P1;durP1;ratioP1;P2;durP2;ratioP2
84984;SDS011;75299;50.018;20.014;2024-03-02T00:02:17;91.05;;;48.93;;
84984;SDS011;75299;50.018;20.014;2024-03-02T00:05:35;80.88;;;47.13;;
84984;SDS011;75299;50.018;20.014;2024-03-02T00:08:57;73.63;;;45.25;;
84984;SDS011;75299;50.018;20.014;2024-03-02T00:12:15;81.70;;;46.38;;
84984;SDS011;75299;50.018;20.014;2024-03-02T00:19:07;78.28;;;45.13;;
84984;SDS011;75299;50.018;20.014;2024-03-02T00:22:26;78.30;;;45.15;;
84984;SDS011;75299;50.018;20.014;2024-03-02T00:25:46;80.13;;;45.03;;
84984;SDS011;75299;50.018;20.014;2024-03-02T00:29:08;78.35;;;46.08;;
84984;SDS011;75299;50.018;20.014;2024-03-02T00:32:27;78.20;;;45.78;;
84984;SDS011;75299;50.018;20.014;2024-03-02T00:35:45;70.38;;;43.95;;
84984;SDS011;75299;50.018;20.014;2024-03-02T00:39:03;74.50;;;44.58;;
84984;SDS011;75299;50.018;20.014;2024-03-02T00:42:21;74.85;;;42.90;;
84984;SDS011;75299;50.018;20.014;2024-03-02T00:45:40;72.18;;;43.63;;
84984;SDS011;75299;50.018;20.014;2024-03-02T00:48:59;76.63;;;46.08;;
84984;SDS011;75299;50.018;20.014;2024-03-02T00:52:17;71.93;;;42.48;;
84984;SDS011;75299;50.018;20.014;2024-03-02T00:55:37;75.95;;;43.70;;
84984;SDS011;75299;50.018;20.014;2024-03-02T00:58:56;76.98;;;45.10;;
84984;SDS011;75299;50.018;20.014;2024-03-02T01:02:14;78.48;;;46.15;;
84984;SDS011;75299;50.018;20.014;2024-03-02T01:05:32;73.40;;;44.18;;
84984;SDS011;75299;50.018;20.014;2024-03-02T01:08:50;73.63;;;42.98;;
84984;SDS011;75299;50.018;20.014;2024-03-02T01:12:08;75.13;;;42.70;;
84984;SDS011;75299;50.018;20.014;2024-03-02T01:15:26;77.73;;;44.73;;
84984;SDS011;75299;50.018;20.014;2024-03-02T01:18:44;81.25;;;45.40;;
84984;SDS011;75299;50.018;20.014;2024-03-02T01:22:02;76.25;;;44.23;;
84984;SDS011;75299;50.018;20.014;2024-03-02T01:25:20;69.45;;;40.15;;
84984;SDS011;75299;50.018;20.014;2024-03-02T01:28:38;72.95;;;44.98;;
84984;SDS011;75299;50.018;20.014;2024-03-02T01:31:55;78.15;;;45.15;;
84984;SDS011;75299;50.018;20.014;2024-03-02T01:35:13;68.78;;;43.03;;
84984;SDS011;75299;50.018;20.014;2024-03-02T01:38:31;78.53;;;44.50;;
84984;SDS011;75299;50.018;20.014;2024-03-02T01:41:49;72.83;;;44.15;;
84984;SDS011;75299;50.018;20.014;2024-03-02T01:45:08;74.10;;;43.23;;
84984;SDS011;75299;50.018;20.014;2024-03-02T01:48:26;75.95;;;42.90;;
84984;SDS011;75299;50.018;20.014;2024-03-02T01:51:43;72.13;;;41.88;;
84984;SDS011;75299;50.018;20.014;2024-03-02T01:55:01;70.68;;;42.45;;
84984;SDS011;75299;50.018;20.014;2024-03-02T01:58:20;72.80;;;43.25;;
84984;SDS011;75299;50.018;20.014;2024-03-02T02:01:38;67.50;;;41.70;;
84984;SDS011;75299;50.018;20.014;2024-03-02T02:04:56;74.58;;;43.68;;
84984;SDS011;75299;50.018;20.014;2024-03-02T02:08:13;69.78;;;43.23;;
84984;SDS011;75299;50.018;20.014;2024-03-02T02:11:31;79.20;;;45.05;;
84984;SDS011;75299;50.018;20.014;2024-03-02T02:14:49;79.15;;;45.75;;
84984;SDS011;75299;50.018;20.014;2024-03-02T02:18:07;74.98;;;46.08;;
84984;SDS011;75299;50.018;20.014;2024-03-02T02:21:25;78.55;;;44.55;;
84984;SDS011;75299;50.018;20.014;2024-03-02T02:24:43;71.63;;;42.65;;
84984;SDS011;75299;50.018;20.014;2024-03-02T02:28:01;77.03;;;43.08;;
84984;SDS011;75299;50.018;20.014;2024-03-02T02:31:19;70.23;;;43.20;;
84984;SDS011;75299;50.018;20.014;2024-03-02T02:34:36;74.23;;;43.45;;
84984;SDS011;75299;50.018;20.014;2024-03-02T02:37:54;74.43;;;43.20;;
84984;SDS011;75299;50.018;20.014;2024-03-02T02:41:12;69.85;;;42.85;;
84984;SDS011;75299;50.018;20.014;2024-03-02T02:44:30;69.68;;;41.00;;
84984;SDS011;75299;50.018;20.014;2024-03-02T02:47:48;68.38;;;39.73;;
84984;SDS011;75299;50.018;20.014;2024-03-02T02:51:05;61.80;;;38.45;;
84984;SDS011;75299;50.018;20.014;2024-03-02T02:54:23;62.00;;;38.00;;
84984;SDS011;75299;50.018;20.014;2024-03-02T02:57:41;66.90;;;40.98;;
84984;SDS011;75299;50.018;20.014;2024-03-02T03:00:59;67.88;;;41.68;;
84984;SDS011;75299;50.018;20.014;2024-03-02T03:04:17;59.93;;;37.65;;
84984;SDS011;75299;50.018;20.014;2024-03-02T03:07:35;66.08;;;39.43;;
84984;SDS011;75299;50.018;20.014;2024-03-02T03:10:53;61.40;;;38.58;;
84984;SDS011;75299;50.018;20.014;2024-03-02T03:14:11;64.20;;;39.13;;
84984;SDS011;75299;50.018;20.014;2024-03-02T03:17:28;69.45;;;39.98;;
84984;SDS011;75299;50.018;20.014;2024-03-02T03:20:46;66.05;;;39.58;;
84984;SDS011;75299;50.018;20.014;2024-03-02T03:24:04;65.80;;;40.03;;
84984;SDS011;75299;50.018;20.014;2024-03-02T03:27:22;61.75;;;38.75;;
84984;SDS011;75299;50.018;20.014;2024-03-02T03:30:40;61.80;;;37.13;;
84984;SDS011;75299;50.018;20.014;2024-03-02T03:33:57;64.68;;;38.38;;
84984;SDS011;75299;50.018;20.014;2024-03-02T03:37:15;63.90;;;38.68;;
84984;SDS011;75299;50.018;20.014;2024-03-02T03:40:34;60.08;;;36.25;;
84984;SDS011;75299;50.018;20.014;2024-03-02T03:43:53;64.73;;;38.40;;
84984;SDS011;75299;50.018;20.014;2024-03-02T03:47:11;67.00;;;39.83;;
84984;SDS011;75299;50.018;20.014;2024-03-02T03:50:29;62.60;;;37.45;;
84984;SDS011;75299;50.018;20.014;2024-03-02T03:53:47;58.60;;;36.88;;
84984;SDS011;75299;50.018;20.014;2024-03-02T03:57:05;64.10;;;37.70;;
84984;SDS011;75299;50.018;20.014;2024-03-02T04:00:24;53.25;;;33.93;;
84984;SDS011;75299;50.018;20.014;2024-03-02T04:03:41;58.65;;;36.73;;
84984;SDS011;75299;50.018;20.014;2024-03-02T04:06:59;66.28;;;37.20;;
84984;SDS011;75299;50.018;20.014;2024-03-02T04:10:16;59.58;;;36.13;;
84984;SDS011;75299;50.018;20.014;2024-03-02T04:13:34;59.78;;;35.55;;
84984;SDS011;75299;50.018;20.014;2024-03-02T04:16:51;55.78;;;35.43;;
84984;SDS011;75299;50.018;20.014;2024-03-02T04:20:10;54.68;;;34.10;;
84984;SDS011;75299;50.018;20.014;2024-03-02T04:23:28;56.25;;;35.28;;
84984;SDS011;75299;50.018;20.014;2024-03-02T04:26:46;56.63;;;35.85;;
84984;SDS011;75299;50.018;20.014;2024-03-02T04:30:04;59.20;;;33.95;;
84984;SDS011;75299;50.018;20.014;2024-03-02T04:33:24;58.53;;;35.70;;
84984;SDS011;75299;50.018;20.014;2024-03-02T04:36:42;58.45;;;36.43;;
84984;SDS011;75299;50.018;20.014;2024-03-02T04:39:59;58.18;;;36.30;;
84984;SDS011;75299;50.018;20.014;2024-03-02T04:43:18;56.28;;;35.28;;
84984;SDS011;75299;50.018;20.014;2024-03-02T04:46:36;60.95;;;36.38;;
84984;SDS011;75299;50.018;20.014;2024-03-02T04:49:53;56.88;;;35.20;;
84984;SDS011;75299;50.018;20.014;2024-03-02T04:53:11;54.63;;;34.18;;
84984;SDS011;75299;50.018;20.014;2024-03-02T04:56:28;59.30;;;37.45;;
84984;SDS011;75299;50.018;20.014;2024-03-02T04:59:54;57.68;;;36.23;;
84984;SDS011;75299;50.018;20.014;2024-03-02T05:03:14;59.90;;;37.15;;
84984;SDS011;75299;50.018;20.014;2024-03-02T05:06:32;58.03;;;35.40;;
84984;SDS011;75299;50.018;20.014;2024-03-02T05:09:50;58.15;;;35.65;;
84984;SDS011;75299;50.018;20.014;2024-03-02T05:13:08;58.75;;;36.38;;
84984;SDS011;75299;50.018;20.014;2024-03-02T05:16:26;55.43;;;36.15;;
84984;SDS011;75299;50.018;20.014;2024-03-02T05:19:46;60.70;;;36.48;;
84984;SDS011;75299;50.018;20.014;2024-03-02T05:23:04;59.48;;;36.10;;
84984;SDS011;75299;50.018;20.014;2024-03-02T05:26:22;58.78;;;37.78;;
84984;SDS011;75299;50.018;20.014;2024-03-02T05:29:40;55.68;;;34.88;;
84984;SDS011;75299;50.018;20.014;2024-03-02T05:32:57;57.20;;;35.88;;
84984;SDS011;75299;50.018;20.014;2024-03-02T05:36:15;65.23;;;37.10;;
84984;SDS011;75299;50.018;20.014;2024-03-02T05:39:33;54.93;;;35.40;;
84984;SDS011;75299;50.018;20.014;2024-03-02T05:42:51;59.48;;;35.70;;
84984;SDS011;75299;50.018;20.014;2024-03-02T05:46:09;56.95;;;36.18;;
84984;SDS011;75299;50.018;20.014;2024-03-02T05:49:27;69.90;;;37.08;;
84984;SDS011;75299;50.018;20.014;2024-03-02T05:52:45;61.13;;;34.63;;
84984;SDS011;75299;50.018;20.014;2024-03-02T05:56:04;53.95;;;34.30;;
84984;SDS011;75299;50.018;20.014;2024-03-02T05:59:22;60.00;;;36.23;;
84984;SDS011;75299;50.018;20.014;2024-03-02T06:02:40;59.63;;;36.28;;
84984;SDS011;75299;50.018;20.014;2024-03-02T06:05:58;56.93;;;36.08;;
84984;SDS011;75299;50.018;20.014;2024-03-02T06:09:17;56.90;;;34.33;;
84984;SDS011;75299;50.018;20.014;2024-03-02T06:12:34;141.95;;;80.08;;
84984;SDS011;75299;50.018;20.014;2024-03-02T06:15:52;148.38;;;79.90;;
84984;SDS011;75299;50.018;20.014;2024-03-02T06:19:10;68.28;;;43.18;;
84984;SDS011;75299;50.018;20.014;2024-03-02T06:22:28;61.03;;;37.78;;
84984;SDS011;75299;50.018;20.014;2024-03-02T06:25:46;60.85;;;36.18;;
84984;SDS011;75299;50.018;20.014;2024-03-02T06:29:03;55.80;;;36.28;;
84984;SDS011;75299;50.018;20.014;2024-03-02T06:32:21;56.28;;;34.45;;
84984;SDS011;75299;50.018;20.014;2024-03-02T06:35:39;59.23;;;38.38;;
84984;SDS011;75299;50.018;20.014;2024-03-02T06:38:57;75.03;;;46.05;;
84984;SDS011;75299;50.018;20.014;2024-03-02T06:42:15;56.70;;;35.03;;
84984;SDS011;75299;50.018;20.014;2024-03-02T06:45:33;58.68;;;34.50;;
84984;SDS011;75299;50.018;20.014;2024-03-02T06:48:50;54.20;;;34.25;;
84984;SDS011;75299;50.018;20.014;2024-03-02T06:52:10;50.48;;;32.55;;
84984;SDS011;75299;50.018;20.014;2024-03-02T06:55:30;48.15;;;32.43;;
84984;SDS011;75299;50.018;20.014;2024-03-02T06:58:48;56.03;;;35.50;;
84984;SDS011;75299;50.018;20.014;2024-03-02T07:02:06;105.83;;;60.28;;
84984;SDS011;75299;50.018;20.014;2024-03-02T07:05:23;51.73;;;35.10;;
84984;SDS011;75299;50.018;20.014;2024-03-02T07:08:41;49.83;;;32.85;;
84984;SDS011;75299;50.018;20.014;2024-03-02T07:11:59;48.25;;;31.43;;
84984;SDS011;75299;50.018;20.014;2024-03-02T07:15:17;50.50;;;33.08;;
84984;SDS011;75299;50.018;20.014;2024-03-02T07:18:54;51.55;;;34.43;;
84984;SDS011;75299;50.018;20.014;2024-03-02T07:22:12;55.80;;;34.90;;
84984;SDS011;75299;50.018;20.014;2024-03-02T07:25:29;48.83;;;33.33;;
84984;SDS011;75299;50.018;20.014;2024-03-02T07:28:49;53.80;;;35.05;;
84984;SDS011;75299;50.018;20.014;2024-03-02T07:32:08;50.80;;;34.30;;
84984;SDS011;75299;50.018;20.014;2024-03-02T07:35:26;52.18;;;33.90;;
84984;SDS011;75299;50.018;20.014;2024-03-02T07:38:44;57.63;;;34.55;;
84984;SDS011;75299;50.018;20.014;2024-03-02T07:42:02;51.28;;;33.80;;
84984;SDS011;75299;50.018;20.014;2024-03-02T07:45:21;49.78;;;33.48;;
84984;SDS011;75299;50.018;20.014;2024-03-02T07:48:39;49.25;;;33.03;;
84984;SDS011;75299;50.018;20.014;2024-03-02T07:51:59;57.05;;;38.18;;
84984;SDS011;75299;50.018;20.014;2024-03-02T07:55:18;53.78;;;36.48;;
84984;SDS011;75299;50.018;20.014;2024-03-02T07:58:36;52.38;;;35.43;;
84984;SDS011;75299;50.018;20.014;2024-03-02T08:01:56;54.05;;;35.68;;
84984;SDS011;75299;50.018;20.014;2024-03-02T08:05:14;54.15;;;36.20;;
84984;SDS011;75299;50.018;20.014;2024-03-02T08:08:31;55.58;;;36.58;;
84984;SDS011;75299;50.018;20.014;2024-03-02T08:11:49;48.63;;;32.98;;
84984;SDS011;75299;50.018;20.014;2024-03-02T08:15:07;51.63;;;32.80;;
84984;SDS011;75299;50.018;20.014;2024-03-02T08:18:25;51.65;;;34.25;;
84984;SDS011;75299;50.018;20.014;2024-03-02T08:21:43;61.50;;;36.48;;
84984;SDS011;75299;50.018;20.014;2024-03-02T08:25:02;89.88;;;57.03;;
84984;SDS011;75299;50.018;20.014;2024-03-02T08:28:22;65.60;;;39.58;;
84984;SDS011;75299;50.018;20.014;2024-03-02T08:31:40;63.75;;;39.30;;
84984;SDS011;75299;50.018;20.014;2024-03-02T08:34:58;57.75;;;35.78;;
84984;SDS011;75299;50.018;20.014;2024-03-02T08:38:16;57.55;;;36.33;;
84984;SDS011;75299;50.018;20.014;2024-03-02T08:41:34;59.35;;;36.65;;
84984;SDS011;75299;50.018;20.014;2024-03-02T08:44:52;54.98;;;33.75;;
84984;SDS011;75299;50.018;20.014;2024-03-02T08:48:10;54.58;;;36.68;;
84984;SDS011;75299;50.018;20.014;2024-03-02T08:51:31;58.60;;;37.45;;
84984;SDS011;75299;50.018;20.014;2024-03-02T08:54:49;69.70;;;43.95;;
84984;SDS011;75299;50.018;20.014;2024-03-02T08:58:10;62.95;;;38.65;;
84984;SDS011;75299;50.018;20.014;2024-03-02T09:01:28;54.98;;;35.28;;
84984;SDS011;75299;50.018;20.014;2024-03-02T09:04:48;51.88;;;34.13;;
84984;SDS011;75299;50.018;20.014;2024-03-02T09:08:10;55.18;;;34.63;;
84984;SDS011;75299;50.018;20.014;2024-03-02T09:11:30;52.73;;;33.85;;
84984;SDS011;75299;50.018;20.014;2024-03-02T09:14:48;51.18;;;35.78;;
84984;SDS011;75299;50.018;20.014;2024-03-02T09:18:06;58.40;;;36.70;;
84984;SDS011;75299;50.018;20.014;2024-03-02T09:21:27;74.00;;;45.65;;
84984;SDS011;75299;50.018;20.014;2024-03-02T09:24:47;54.85;;;35.98;;
84984;SDS011;75299;50.018;20.014;2024-03-02T09:28:05;58.33;;;36.85;;
84984;SDS011;75299;50.018;20.014;2024-03-02T09:31:23;55.08;;;38.05;;
84984;SDS011;75299;50.018;20.014;2024-03-02T09:34:41;55.58;;;36.80;;
84984;SDS011;75299;50.018;20.014;2024-03-02T09:38:01;61.48;;;39.58;;
84984;SDS011;75299;50.018;20.014;2024-03-02T09:41:19;56.50;;;38.68;;
84984;SDS011;75299;50.018;20.014;2024-03-02T09:44:37;56.95;;;38.98;;
84984;SDS011;75299;50.018;20.014;2024-03-02T09:47:55;72.08;;;46.48;;
84984;SDS011;75299;50.018;20.014;2024-03-02T09:51:13;66.63;;;41.15;;
84984;SDS011;75299;50.018;20.014;2024-03-02T09:54:32;57.68;;;37.38;;
84984;SDS011;75299;50.018;20.014;2024-03-02T09:57:51;58.08;;;37.83;;
84984;SDS011;75299;50.018;20.014;2024-03-02T10:01:09;53.70;;;36.38;;
84984;SDS011;75299;50.018;20.014;2024-03-02T10:04:27;54.53;;;39.68;;
84984;SDS011;75299;50.018;20.014;2024-03-02T10:07:47;66.40;;;44.38;;
84984;SDS011;75299;50.018;20.014;2024-03-02T10:11:27;59.95;;;38.88;;
84984;SDS011;75299;50.018;20.014;2024-03-02T10:14:47;56.20;;;33.73;;
84984;SDS011;75299;50.018;20.014;2024-03-02T10:18:06;52.85;;;33.70;;
84984;SDS011;75299;50.018;20.014;2024-03-02T10:21:26;90.10;;;54.13;;
84984;SDS011;75299;50.018;20.014;2024-03-02T10:24:44;64.58;;;41.33;;
84984;SDS011;75299;50.018;20.014;2024-03-02T10:28:04;55.60;;;36.48;;
84984;SDS011;75299;50.018;20.014;2024-03-02T10:31:22;54.93;;;38.75;;
84984;SDS011;75299;50.018;20.014;2024-03-02T10:38:01;53.73;;;34.48;;
84984;SDS011;75299;50.018;20.014;2024-03-02T10:41:23;53.80;;;34.75;;
84984;SDS011;75299;50.018;20.014;2024-03-02T10:44:42;51.78;;;33.68;;
84984;SDS011;75299;50.018;20.014;2024-03-02T10:47:59;49.90;;;32.00;;
84984;SDS011;75299;50.018;20.014;2024-03-02T10:51:21;51.00;;;33.90;;
84984;SDS011;75299;50.018;20.014;2024-03-02T10:54:40;52.15;;;35.90;;
84984;SDS011;75299;50.018;20.014;2024-03-02T10:57:59;81.30;;;52.03;;
84984;SDS011;75299;50.018;20.014;2024-03-02T11:01:19;80.68;;;51.63;;
84984;SDS011;75299;50.018;20.014;2024-03-02T11:04:40;54.78;;;37.68;;
84984;SDS011;75299;50.018;20.014;2024-03-02T11:08:02;51.78;;;34.20;;
84984;SDS011;75299;50.018;20.014;2024-03-02T11:11:23;45.33;;;30.68;;
84984;SDS011;75299;50.018;20.014;2024-03-02T11:14:45;52.78;;;34.50;;
84984;SDS011;75299;50.018;20.014;2024-03-02T11:18:04;56.00;;;34.13;;
84984;SDS011;75299;50.018;20.014;2024-03-02T11:21:23;49.35;;;32.63;;
84984;SDS011;75299;50.018;20.014;2024-03-02T11:24:46;45.43;;;31.78;;
84984;SDS011;75299;50.018;20.014;2024-03-02T11:28:12;49.15;;;31.80;;
84984;SDS011;75299;50.018;20.014;2024-03-02T11:35:14;48.60;;;29.18;;
84984;SDS011;75299;50.018;20.014;2024-03-02T11:38:32;46.28;;;28.73;;
84984;SDS011;75299;50.018;20.014;2024-03-02T11:41:51;44.50;;;29.10;;
84984;SDS011;75299;50.018;20.014;2024-03-02T11:45:11;48.63;;;33.28;;
84984;SDS011;75299;50.018;20.014;2024-03-02T11:48:31;50.70;;;35.85;;
84984;SDS011;75299;50.018;20.014;2024-03-02T11:51:53;53.63;;;36.73;;
84984;SDS011;75299;50.018;20.014;2024-03-02T11:55:17;52.13;;;37.00;;
84984;SDS011;75299;50.018;20.014;2024-03-02T11:58:40;55.98;;;37.80;;
84984;SDS011;75299;50.018;20.014;2024-03-02T12:02:00;57.58;;;39.33;;
84984;SDS011;75299;50.018;20.014;2024-03-02T12:05:19;57.68;;;39.00;;
84984;SDS011;75299;50.018;20.014;2024-03-02T12:08:38;54.10;;;36.75;;
84984;SDS011;75299;50.018;20.014;2024-03-02T12:12:08;56.60;;;36.83;;
84984;SDS011;75299;50.018;20.014;2024-03-02T12:15:29;51.60;;;35.18;;
84984;SDS011;75299;50.018;20.014;2024-03-02T12:18:48;52.18;;;35.45;;
84984;SDS011;75299;50.018;20.014;2024-03-02T12:22:18;47.75;;;32.73;;
84984;SDS011;75299;50.018;20.014;2024-03-02T12:25:49;45.28;;;30.70;;
84984;SDS011;75299;50.018;20.014;2024-03-02T12:29:07;45.65;;;30.33;;
84984;SDS011;75299;50.018;20.014;2024-03-02T12:32:33;43.95;;;29.85;;
84984;SDS011;75299;50.018;20.014;2024-03-02T12:35:52;42.78;;;27.60;;
84984;SDS011;75299;50.018;20.014;2024-03-02T12:39:11;44.50;;;27.05;;
84984;SDS011;75299;50.018;20.014;2024-03-02T12:42:31;38.68;;;24.68;;
84984;SDS011;75299;50.018;20.014;2024-03-02T12:45:54;42.73;;;27.30;;
84984;SDS011;75299;50.018;20.014;2024-03-02T12:49:16;40.08;;;25.78;;
84984;SDS011;75299;50.018;20.014;2024-03-02T12:52:39;42.05;;;26.48;;
84984;SDS011;75299;50.018;20.014;2024-03-02T12:56:06;38.38;;;25.35;;
84984;SDS011;75299;50.018;20.014;2024-03-02T12:59:28;37.80;;;25.58;;
84984;SDS011;75299;50.018;20.014;2024-03-02T13:02:45;40.00;;;25.48;;
84984;SDS011;75299;50.018;20.014;2024-03-02T13:06:06;39.40;;;24.05;;
84984;SDS011;75299;50.018;20.014;2024-03-02T13:09:24;41.53;;;25.30;;
84984;SDS011;75299;50.018;20.014;2024-03-02T13:12:43;44.83;;;25.28;;
84984;SDS011;75299;50.018;20.014;2024-03-02T13:16:00;43.60;;;24.08;;
84984;SDS011;75299;50.018;20.014;2024-03-02T13:19:19;34.83;;;22.45;;
84984;SDS011;75299;50.018;20.014;2024-03-02T13:22:38;38.50;;;24.43;;
84984;SDS011;75299;50.018;20.014;2024-03-02T13:29:10;41.18;;;25.23;;
84984;SDS011;75299;50.018;20.014;2024-03-02T13:32:27;40.58;;;25.43;;
84984;SDS011;75299;50.018;20.014;2024-03-02T13:35:45;39.88;;;27.38;;
84984;SDS011;75299;50.018;20.014;2024-03-02T13:39:03;40.90;;;26.28;;
84984;SDS011;75299;50.018;20.014;2024-03-02T13:42:23;40.13;;;23.18;;
84984;SDS011;75299;50.018;20.014;2024-03-02T13:45:41;41.50;;;25.30;;
84984;SDS011;75299;50.018;20.014;2024-03-02T13:49:00;39.55;;;26.05;;
84984;SDS011;75299;50.018;20.014;2024-03-02T13:52:17;39.35;;;25.15;;
84984;SDS011;75299;50.018;20.014;2024-03-02T13:55:34;38.65;;;25.33;;
84984;SDS011;75299;50.018;20.014;2024-03-02T13:58:52;33.05;;;22.68;;
84984;SDS011;75299;50.018;20.014;2024-03-02T14:02:09;39.18;;;25.50;;
84984;SDS011;75299;50.018;20.014;2024-03-02T14:05:27;42.30;;;26.98;;
84984;SDS011;75299;50.018;20.014;2024-03-02T14:08:45;46.45;;;25.43;;
84984;SDS011;75299;50.018;20.014;2024-03-02T14:12:03;43.90;;;26.50;;
84984;SDS011;75299;50.018;20.014;2024-03-02T14:15:22;42.63;;;26.25;;
84984;SDS011;75299;50.018;20.014;2024-03-02T14:18:40;36.48;;;22.95;;
84984;SDS011;75299;50.018;20.014;2024-03-02T14:21:58;40.00;;;25.03;;
84984;SDS011;75299;50.018;20.014;2024-03-02T14:25:16;42.03;;;25.15;;
84984;SDS011;75299;50.018;20.014;2024-03-02T14:28:33;37.50;;;24.95;;
84984;SDS011;75299;50.018;20.014;2024-03-02T14:31:52;41.75;;;26.33;;
84984;SDS011;75299;50.018;20.014;2024-03-02T14:35:11;45.65;;;27.73;;
84984;SDS011;75299;50.018;20.014;2024-03-02T14:38:31;43.73;;;27.58;;
84984;SDS011;75299;50.018;20.014;2024-03-02T14:41:48;41.15;;;27.25;;
84984;SDS011;75299;50.018;20.014;2024-03-02T14:45:07;39.60;;;26.80;;
84984;SDS011;75299;50.018;20.014;2024-03-02T14:48:25;42.48;;;25.08;;
84984;SDS011;75299;50.018;20.014;2024-03-02T14:51:43;40.53;;;24.98;;
84984;SDS011;75299;50.018;20.014;2024-03-02T14:55:01;42.25;;;25.83;;
84984;SDS011;75299;50.018;20.014;2024-03-02T14:58:20;37.05;;;23.35;;
84984;SDS011;75299;50.018;20.014;2024-03-02T15:01:38;40.48;;;25.73;;
84984;SDS011;75299;50.018;20.014;2024-03-02T15:04:57;41.58;;;25.70;;
84984;SDS011;75299;50.018;20.014;2024-03-02T15:08:14;41.00;;;24.00;;
84984;SDS011;75299;50.018;20.014;2024-03-02T15:11:32;39.98;;;25.73;;
84984;SDS011;75299;50.018;20.014;2024-03-02T15:14:50;39.83;;;24.95;;
84984;SDS011;75299;50.018;20.014;2024-03-02T15:18:07;41.58;;;26.38;;
84984;SDS011;75299;50.018;20.014;2024-03-02T15:21:25;45.35;;;26.83;;
84984;SDS011;75299;50.018;20.014;2024-03-02T15:24:43;37.73;;;25.90;;
84984;SDS011;75299;50.018;20.014;2024-03-02T15:28:02;45.25;;;26.95;;
84984;SDS011;75299;50.018;20.014;2024-03-02T15:31:20;44.25;;;26.73;;
84984;SDS011;75299;50.018;20.014;2024-03-02T15:34:38;43.23;;;26.93;;
84984;SDS011;75299;50.018;20.014;2024-03-02T15:37:56;42.73;;;27.50;;
84984;SDS011;75299;50.018;20.014;2024-03-02T15:44:55;47.30;;;27.40;;
84984;SDS011;75299;50.018;20.014;2024-03-02T15:48:13;44.78;;;25.75;;
84984;SDS011;75299;50.018;20.014;2024-03-02T15:51:31;42.00;;;26.55;;
84984;SDS011;75299;50.018;20.014;2024-03-02T15:54:51;44.98;;;27.23;;
84984;SDS011;75299;50.018;20.014;2024-03-02T15:58:09;51.08;;;28.88;;
84984;SDS011;75299;50.018;20.014;2024-03-02T16:01:27;43.43;;;28.45;;
84984;SDS011;75299;50.018;20.014;2024-03-02T16:04:45;46.03;;;27.03;;
84984;SDS011;75299;50.018;20.014;2024-03-02T16:08:03;49.58;;;28.60;;
84984;SDS011;75299;50.018;20.014;2024-03-02T16:11:20;45.40;;;27.43;;
84984;SDS011;75299;50.018;20.014;2024-03-02T16:14:38;45.30;;;28.45;;
84984;SDS011;75299;50.018;20.014;2024-03-02T16:17:56;44.05;;;27.63;;
84984;SDS011;75299;50.018;20.014;2024-03-02T16:21:14;50.85;;;28.70;;
84984;SDS011;75299;50.018;20.014;2024-03-02T16:24:34;50.63;;;31.05;;
84984;SDS011;75299;50.018;20.014;2024-03-02T16:27:52;48.10;;;28.23;;
84984;SDS011;75299;50.018;20.014;2024-03-02T16:31:11;47.45;;;28.75;;
84984;SDS011;75299;50.018;20.014;2024-03-02T16:34:29;49.98;;;29.73;;
84984;SDS011;75299;50.018;20.014;2024-03-02T16:37:47;48.70;;;29.43;;
84984;SDS011;75299;50.018;20.014;2024-03-02T16:41:05;50.45;;;30.50;;
84984;SDS011;75299;50.018;20.014;2024-03-02T16:44:24;53.70;;;29.65;;
84984;SDS011;75299;50.018;20.014;2024-03-02T16:47:42;51.50;;;31.60;;
84984;SDS011;75299;50.018;20.014;2024-03-02T16:51:00;47.38;;;30.70;;
84984;SDS011;75299;50.018;20.014;2024-03-02T16:54:19;52.48;;;30.98;;
84984;SDS011;75299;50.018;20.014;2024-03-02T16:57:37;51.85;;;31.73;;
84984;SDS011;75299;50.018;20.014;2024-03-02T17:00:56;57.25;;;32.73;;
84984;SDS011;75299;50.018;20.014;2024-03-02T17:04:14;57.23;;;33.53;;
84984;SDS011;75299;50.018;20.014;2024-03-02T17:07:32;59.03;;;32.20;;
84984;SDS011;75299;50.018;20.014;2024-03-02T17:10:49;55.65;;;32.05;;
84984;SDS011;75299;50.018;20.014;2024-03-02T17:14:08;65.03;;;37.40;;
84984;SDS011;75299;50.018;20.014;2024-03-02T17:17:25;61.40;;;36.83;;
84984;SDS011;75299;50.018;20.014;2024-03-02T17:20:44;58.80;;;36.73;;
84984;SDS011;75299;50.018;20.014;2024-03-02T17:24:02;62.30;;;37.03;;
84984;SDS011;75299;50.018;20.014;2024-03-02T17:27:21;63.23;;;38.53;;
84984;SDS011;75299;50.018;20.014;2024-03-02T17:30:39;53.48;;;33.15;;
84984;SDS011;75299;50.018;20.014;2024-03-02T17:33:57;60.60;;;37.20;;
84984;SDS011;75299;50.018;20.014;2024-03-02T17:37:18;52.73;;;33.05;;
84984;SDS011;75299;50.018;20.014;2024-03-02T17:40:37;61.30;;;36.80;;
84984;SDS011;75299;50.018;20.014;2024-03-02T17:43:55;65.08;;;38.03;;
84984;SDS011;75299;50.018;20.014;2024-03-02T17:47:13;58.48;;;36.03;;
84984;SDS011;75299;50.018;20.014;2024-03-02T17:50:32;62.25;;;33.93;;
84984;SDS011;75299;50.018;20.014;2024-03-02T17:53:49;61.90;;;35.98;;
84984;SDS011;75299;50.018;20.014;2024-03-02T17:57:07;68.85;;;38.00;;
84984;SDS011;75299;50.018;20.014;2024-03-02T18:00:25;58.15;;;37.08;;
84984;SDS011;75299;50.018;20.014;2024-03-02T18:03:43;62.25;;;37.53;;
84984;SDS011;75299;50.018;20.014;2024-03-02T18:07:01;61.98;;;37.15;;
84984;SDS011;75299;50.018;20.014;2024-03-02T18:10:19;64.43;;;37.48;;
84984;SDS011;75299;50.018;20.014;2024-03-02T18:13:37;65.03;;;37.13;;
84984;SDS011;75299;50.018;20.014;2024-03-02T18:16:56;67.40;;;37.98;;
84984;SDS011;75299;50.018;20.014;2024-03-02T18:20:15;62.63;;;38.48;;
84984;SDS011;75299;50.018;20.014;2024-03-02T18:23:33;67.63;;;40.60;;
84984;SDS011;75299;50.018;20.014;2024-03-02T18:26:51;71.15;;;43.65;;
84984;SDS011;75299;50.018;20.014;2024-03-02T18:30:10;91.00;;;51.25;;
84984;SDS011;75299;50.018;20.014;2024-03-02T18:33:29;83.00;;;50.83;;
84984;SDS011;75299;50.018;20.014;2024-03-02T18:36:47;84.33;;;50.75;;
84984;SDS011;75299;50.018;20.014;2024-03-02T18:40:06;81.75;;;48.20;;
84984;SDS011;75299;50.018;20.014;2024-03-02T18:43:25;79.95;;;46.78;;
84984;SDS011;75299;50.018;20.014;2024-03-02T18:46:42;88.08;;;51.75;;
84984;SDS011;75299;50.018;20.014;2024-03-02T18:50:00;84.67;;;51.30;;
84984;SDS011;75299;50.018;20.014;2024-03-02T18:53:20;89.18;;;51.38;;
84984;SDS011;75299;50.018;20.014;2024-03-02T18:56:38;80.65;;;50.15;;
84984;SDS011;75299;50.018;20.014;2024-03-02T18:59:56;92.48;;;54.75;;
84984;SDS011;75299;50.018;20.014;2024-03-02T19:03:17;89.00;;;53.45;;
84984;SDS011;75299;50.018;20.014;2024-03-02T19:06:35;87.03;;;50.45;;
84984;SDS011;75299;50.018;20.014;2024-03-02T19:09:53;85.48;;;49.98;;
84984;SDS011;75299;50.018;20.014;2024-03-02T19:13:13;83.13;;;49.63;;
84984;SDS011;75299;50.018;20.014;2024-03-02T19:16:32;81.38;;;47.05;;
84984;SDS011;75299;50.018;20.014;2024-03-02T19:19:51;88.15;;;49.85;;
84984;SDS011;75299;50.018;20.014;2024-03-02T19:23:09;84.98;;;49.15;;